Bonaparte, Iowa
Current Conditions -  °F | °C
As of 2:35 PM on Friday 21 Nov 2014 (Local Time) from KMPZ Reporting Station
Clear Clear  
Wind Chill: 26°   Ceiling: Unl
Heat Index: 34°   Visibility: 10mi
Dew Point: 15°   Wind: 10mph
Humidity: 46%   Direction: 140°SE
Pressure: 30.24"   Gusts: NA
Location:  40.7°N, 91.8°W
Report Text: KMPZ 212035Z AUTO 14009KT 10SM CLR 01/M09 A3024 RMK AO2 T00101095
Loading
Personal Weather Stations






























Interactive Weather Map New forecast layout! Learn more

10-Day Weather Forecast

Advertisements
Track Severe Weather on mobile